Time;durP1;ratioP1;P1;durP2;ratioP2;P2;SDS_P1;SDS_P2;PMS_P1;PMS_P2;Temp;Humidity;BMP_temperature;BMP_pressure;BME280_temperature;BME280_humidity;BME280_pressure;Samples;Min_cycle;Max_cycle;Signal;HPM_P1;HPM_P2
2021/08/30 00:02:16;;;;;;;;;;;16.90;99.90;;;;;;5072743;28;19947;-77
2021/08/30 00:04:41;;;;;;;;;;;16.90;99.90;;;;;;5073458;28;19920;-76
2021/08/30 00:07:07;;;;;;;;;;;16.90;99.90;;;;;;5055366;28;20267;-77
2021/08/30 00:09:33;;;;;;;;;;;16.80;99.90;;;;;;5072333;28;19908;-78
2021/08/30 00:11:58;;;;;;;;;;;16.90;99.90;;;;;;5052609;28;19917;-76
2021/08/30 00:14:24;;;;;;;;;;;16.90;99.90;;;;;;5072541;28;19916;-80
2021/08/30 00:16:49;;;;;;;;;;;16.90;99.90;;;;;;5052624;28;19916;-77
2021/08/30 00:19:15;;;;;;;;;;;16.90;99.90;;;;;;5071210;28;19959;-78
2021/08/30 00:21:40;;;;;;;;;;;16.90;99.90;;;;;;5059498;28;20319;-77
2021/08/30 00:24:06;;;;;;;;;;;16.80;99.90;;;;;;5073340;28;19913;-76
2021/08/30 00:26:32;;;;;;;;;;;16.80;99.90;;;;;;5057838;28;19916;-76
2021/08/30 00:28:57;;;;;;;;;;;16.80;99.90;;;;;;5073865;28;19920;-77
2021/08/30 00:31:26;;;;;;;;;;;16.80;99.90;;;;;;5077761;28;20207;-77
2021/08/30 00:33:53;;;;;;;;;;;16.80;99.90;;;;;;5057739;28;19935;-76
2021/08/30 00:36:18;;;;;;;;;;;16.70;99.90;;;;;;5058216;28;20256;-77
2021/08/30 00:38:44;;;;;;;;;;;16.70;99.90;;;;;;5059747;28;19951;-77
2021/08/30 00:41:09;;;;;;;;;;;16.60;99.90;;;;;;5048550;28;19928;-77
2021/08/30 00:43:35;;;;;;;;;;;16.60;99.90;;;;;;5077534;28;19916;-76
2021/08/30 00:46:01;;;;;;;;;;;16.60;99.90;;;;;;5057802;28;19960;-76
2021/08/30 00:48:27;;;;;;;;;;;16.60;99.90;;;;;;5076986;28;20355;-76
2021/08/30 00:50:53;;;;;;;;;;;16.60;99.90;;;;;;5074542;28;20008;-76
2021/08/30 00:53:19;;;;;;;;;;;16.60;99.90;;;;;;5058377;28;19916;-76
2021/08/30 00:55:45;;;;;;;;;;;16.60;99.90;;;;;;5071330;28;20234;-77
2021/08/30 00:58:10;;;;;;;;;;;16.60;99.90;;;;;;5074083;28;19917;-77
2021/08/30 01:00:36;;;;;;;;;;;16.60;99.90;;;;;;5088080;28;19920;-76
2021/08/30 01:03:01;;;;;;;;;;;16.60;99.90;;;;;;5076405;28;19924;-76
2021/08/30 01:05:27;;;;;;;;;;;16.60;99.90;;;;;;5097275;28;19912;-76
2021/08/30 01:08:11;;;;;;;;;;;16.60;99.90;;;;;;5092675;28;20196;-77
2021/08/30 01:10:50;;;;;;;;;;;16.60;99.90;;;;;;5096067;28;19920;-76
2021/08/30 01:13:29;;;;;;;;;;;16.60;99.90;;;;;;5094596;28;20657;-77
2021/08/30 01:15:59;;;;;;;;;;;16.60;99.90;;;;;;5075373;28;19912;-76
2021/08/30 01:18:26;;;;;;;;;;;16.70;99.90;;;;;;5094195;28;19968;-76
2021/08/30 01:21:10;;;;;;;;;;;16.70;99.90;;;;;;5075276;28;19919;-76
2021/08/30 01:23:37;;;;;;;;;;;16.70;99.90;;;;;;5093462;28;19970;-78
2021/08/30 01:26:04;;;;;;;;;;;16.70;99.90;;;;;;5093499;28;19959;-78
2021/08/30 01:28:34;;;;;;;;;;;16.70;99.90;;;;;;5096248;28;19912;-77
2021/08/30 01:31:02;;;;;;;;;;;16.70;99.90;;;;;;5095815;28;20218;-77
2021/08/30 01:33:27;;;;;;;;;;;16.70;99.90;;;;;;5078113;28;19912;-76
2021/08/30 01:35:54;;;;;;;;;;;16.70;99.90;;;;;;5077816;28;19961;-78
2021/08/30 01:38:19;;;;;;;;;;;16.80;99.90;;;;;;5077830;28;19912;-76
2021/08/30 01:40:45;;;;;;;;;;;16.70;99.90;;;;;;5078184;28;19943;-76
2021/08/30 01:43:11;;;;;;;;;;;16.70;99.90;;;;;;5093741;28;20040;-76
2021/08/30 01:45:37;;;;;;;;;;;16.70;99.90;;;;;;5092426;28;19916;-77
2021/08/30 01:48:04;;;;;;;;;;;16.70;99.90;;;;;;5096035;28;20214;-76
2021/08/30 01:50:30;;;;;;;;;;;16.80;99.90;;;;;;5094476;28;19923;-77
2021/08/30 01:53:00;;;;;;;;;;;16.80;99.90;;;;;;5095132;28;21213;-76
2021/08/30 02:00:47;;;;;;;;;;;16.80;99.90;;;;;;5094156;28;19923;-76
2021/08/30 02:03:29;;;;;;;;;;;16.80;99.90;;;;;;5094260;28;20388;-76
2021/08/30 02:06:02;;;;;;;;;;;16.80;99.90;;;;;;5075384;28;19927;-76
2021/08/30 02:08:30;;;;;;;;;;;16.80;99.90;;;;;;5072908;28;20317;-76
2021/08/30 02:11:00;;;;;;;;;;;16.80;99.90;;;;;;5090609;28;19924;-77
2021/08/30 02:13:28;;;;;;;;;;;16.80;99.90;;;;;;5094380;28;20231;-76
2021/08/30 02:15:55;;;;;;;;;;;16.70;99.90;;;;;;5074130;28;19912;-76
2021/08/30 02:18:24;;;;;;;;;;;16.70;99.90;;;;;;5087389;28;19935;-76
2021/08/30 02:20:56;;;;;;;;;;;16.80;99.90;;;;;;5095248;28;19912;-76
2021/08/30 02:23:25;;;;;;;;;;;16.80;99.90;;;;;;5071988;28;19909;-76
2021/08/30 02:25:53;;;;;;;;;;;16.80;99.90;;;;;;5073885;28;19974;-75
2021/08/30 02:28:20;;;;;;;;;;;16.70;99.90;;;;;;5076847;28;19911;-76
2021/08/30 02:30:46;;;;;;;;;;;16.80;99.90;;;;;;5094858;28;19912;-76
2021/08/30 02:33:12;;;;;;;;;;;16.70;99.90;;;;;;5095018;28;19913;-76
2021/08/30 02:35:42;;;;;;;;;;;16.70;99.90;;;;;;5074046;28;19920;-76
2021/08/30 02:38:09;;;;;;;;;;;16.60;99.90;;;;;;5095156;28;19916;-76
2021/08/30 02:40:35;;;;;;;;;;;16.40;99.90;;;;;;5093323;28;19916;-76
2021/08/30 02:43:01;;;;;;;;;;;16.30;99.90;;;;;;5088715;28;19912;-75
2021/08/30 02:45:28;;;;;;;;;;;16.20;99.90;;;;;;5072657;28;20299;-75
2021/08/30 02:47:56;;;;;;;;;;;16.20;99.90;;;;;;5090198;28;19920;-75
2021/08/30 02:50:22;;;;;;;;;;;16.10;99.90;;;;;;5092147;28;20318;-76
2021/08/30 02:52:48;;;;;;;;;;;16.10;99.90;;;;;;5073365;28;20422;-76
2021/08/30 02:55:14;;;;;;;;;;;16.00;99.90;;;;;;5094047;28;19923;-76
2021/08/30 02:57:40;;;;;;;;;;;16.00;99.90;;;;;;5089774;28;19916;-76
2021/08/30 03:00:06;;;;;;;;;;;15.90;99.90;;;;;;5073307;28;19924;-76
2021/08/30 03:02:31;;;;;;;;;;;15.90;99.90;;;;;;5074109;28;20373;-76
2021/08/30 03:04:57;;;;;;;;;;;15.90;99.90;;;;;;5074442;28;19962;-76
2021/08/30 03:07:28;;;;;;;;;;;15.90;99.90;;;;;;5074114;28;19931;-76
2021/08/30 03:09:54;;;;;;;;;;;15.90;99.90;;;;;;5091239;28;19923;-76
2021/08/30 03:12:21;;;;;;;;;;;15.80;99.90;;;;;;5073685;28;20199;-76
2021/08/30 03:14:47;;;;;;;;;;;15.80;99.90;;;;;;5075333;28;20002;-77
2021/08/30 03:17:14;;;;;;;;;;;15.80;99.90;;;;;;5093498;28;20241;-75
2021/08/30 03:19:41;;;;;;;;;;;15.80;99.90;;;;;;5091980;28;20204;-76
2021/08/30 03:22:09;;;;;;;;;;;15.80;99.90;;;;;;5092798;28;19923;-75
2021/08/30 03:24:36;;;;;;;;;;;15.80;99.90;;;;;;5075410;28;19920;-77
2021/08/30 03:27:02;;;;;;;;;;;15.70;99.90;;;;;;5072643;28;20016;-75
2021/08/30 03:29:28;;;;;;;;;;;15.80;99.90;;;;;;5091620;28;20306;-76
2021/08/30 03:31:54;;;;;;;;;;;15.70;99.90;;;;;;5072854;28;20475;-76
2021/08/30 03:34:21;;;;;;;;;;;15.70;99.90;;;;;;5089776;28;19923;-76
2021/08/30 03:36:47;;;;;;;;;;;15.60;99.90;;;;;;5074284;28;20374;-75
2021/08/30 03:39:13;;;;;;;;;;;15.70;99.90;;;;;;5073965;28;20047;-77
2021/08/30 03:41:39;;;;;;;;;;;15.70;99.90;;;;;;5068644;28;19916;-76
2021/08/30 03:44:05;;;;;;;;;;;15.70;99.90;;;;;;5067517;28;19919;-77
2021/08/30 03:46:31;;;;;;;;;;;15.80;99.90;;;;;;5072619;28;19916;-76
2021/08/30 03:48:56;;;;;;;;;;;15.90;99.90;;;;;;5089627;28;19908;-76
2021/08/30 03:51:23;;;;;;;;;;;15.90;99.90;;;;;;5072856;28;19924;-75
2021/08/30 03:53:49;;;;;;;;;;;16.00;99.90;;;;;;5090634;28;20010;-75
2021/08/30 03:56:15;;;;;;;;;;;16.00;99.90;;;;;;5072018;28;19965;-76
2021/08/30 03:58:42;;;;;;;;;;;16.00;99.90;;;;;;5090013;28;20284;-75
2021/08/30 04:01:08;;;;;;;;;;;16.10;99.90;;;;;;5093381;28;19916;-75
2021/08/30 04:03:35;;;;;;;;;;;16.10;99.90;;;;;;5092849;28;19919;-75
2021/08/30 04:06:01;;;;;;;;;;;16.10;99.90;;;;;;5091421;28;19912;-81
2021/08/30 04:08:29;;;;;;;;;;;16.10;99.90;;;;;;5075421;28;19915;-76
2021/08/30 04:10:55;;;;;;;;;;;16.20;99.90;;;;;;5090840;28;19927;-76
2021/08/30 04:13:20;;;;;;;;;;;16.20;99.90;;;;;;5088624;28;20260;-75
2021/08/30 04:15:46;;;;;;;;;;;16.20;99.90;;;;;;5089618;28;19912;-77
2021/08/30 04:18:11;;;;;;;;;;;16.20;99.90;;;;;;5070557;28;19913;-76
2021/08/30 04:20:37;;;;;;;;;;;16.10;99.90;;;;;;5072138;28;19916;-77
2021/08/30 04:23:02;;;;;;;;;;;16.20;99.90;;;;;;5091578;28;19912;-75
2021/08/30 04:25:28;;;;;;;;;;;16.20;99.90;;;;;;5092819;28;19912;-76
2021/08/30 04:27:53;;;;;;;;;;;16.20;99.90;;;;;;5073688;28;19923;-76
2021/08/30 04:30:19;;;;;;;;;;;16.20;99.90;;;;;;5091579;28;20384;-76
2021/08/30 04:32:45;;;;;;;;;;;16.30;99.90;;;;;;5092925;28;20239;-76
2021/08/30 04:35:10;;;;;;;;;;;16.30;99.90;;;;;;5093584;28;20406;-75
2021/08/30 04:37:36;;;;;;;;;;;16.30;99.90;;;;;;5064257;28;19916;-76
2021/08/30 04:40:02;;;;;;;;;;;16.30;99.90;;;;;;5079882;28;19912;-76
2021/08/30 04:42:28;;;;;;;;;;;16.30;99.90;;;;;;5070898;28;19920;-75
2021/08/30 04:44:55;;;;;;;;;;;16.30;99.90;;;;;;5089560;28;19931;-76
2021/08/30 04:47:20;;;;;;;;;;;16.40;99.90;;;;;;5080665;28;19916;-76
2021/08/30 04:49:46;;;;;;;;;;;16.40;99.90;;;;;;5084271;28;19916;-76
2021/08/30 04:52:12;;;;;;;;;;;16.40;99.90;;;;;;5082777;28;19920;-77
2021/08/30 04:54:37;;;;;;;;;;;16.40;99.90;;;;;;5074896;28;19912;-76
2021/08/30 04:57:03;;;;;;;;;;;16.40;99.90;;;;;;5074588;28;19962;-75
2021/08/30 04:59:28;;;;;;;;;;;16.40;99.90;;;;;;5092969;28;19912;-76
2021/08/30 05:01:54;;;;;;;;;;;16.40;99.90;;;;;;5071926;28;19962;-76
2021/08/30 05:04:19;;;;;;;;;;;16.40;99.90;;;;;;5073351;28;19920;-79
2021/08/30 05:06:45;;;;;;;;;;;16.40;99.90;;;;;;5078781;28;19932;-76
2021/08/30 05:09:11;;;;;;;;;;;16.40;99.90;;;;;;5072734;28;20230;-77
2021/08/30 05:11:37;;;;;;;;;;;16.40;99.90;;;;;;5087807;28;19923;-75
2021/08/30 05:14:03;;;;;;;;;;;16.50;99.90;;;;;;5072958;28;19966;-75
2021/08/30 05:16:29;;;;;;;;;;;16.40;99.90;;;;;;5074852;28;19912;-76
2021/08/30 05:18:54;;;;;;;;;;;16.40;99.90;;;;;;5090185;28;19920;-77
2021/08/30 05:21:20;;;;;;;;;;;16.40;99.90;;;;;;5093520;28;19917;-76
2021/08/30 05:23:45;;;;;;;;;;;16.40;99.90;;;;;;5089065;28;20004;-75
2021/08/30 05:26:11;;;;;;;;;;;16.40;99.90;;;;;;5070036;28;20257;-75
2021/08/30 05:28:37;;;;;;;;;;;16.40;99.90;;;;;;5088191;28;20002;-76
2021/08/30 05:31:03;;;;;;;;;;;16.50;99.90;;;;;;5090855;28;19920;-77
2021/08/30 05:33:29;;;;;;;;;;;16.40;99.90;;;;;;5090661;28;19912;-85
2021/08/30 05:35:55;;;;;;;;;;;16.50;99.90;;;;;;5088161;28;19920;-79
2021/08/30 05:38:20;;;;;;;;;;;16.50;99.90;;;;;;5070913;28;19923;-80
2021/08/30 05:40:46;;;;;;;;;;;16.50;99.90;;;;;;5091300;28;19973;-75
2021/08/30 05:43:11;;;;;;;;;;;16.50;99.90;;;;;;5089076;28;19912;-77
2021/08/30 05:45:37;;;;;;;;;;;16.50;99.90;;;;;;5070855;28;20344;-82
2021/08/30 05:48:03;;;;;;;;;;;16.50;99.90;;;;;;5088381;28;19920;-79
2021/08/30 05:50:28;;;;;;;;;;;16.50;99.90;;;;;;5070123;28;19962;-76
2021/08/30 05:52:54;;;;;;;;;;;16.60;99.90;;;;;;5072315;28;19920;-82
2021/08/30 05:55:20;;;;;;;;;;;16.60;99.90;;;;;;5072810;28;20200;-79
2021/08/30 05:57:45;;;;;;;;;;;16.60;99.90;;;;;;5071394;28;19920;-76
2021/08/30 06:00:11;;;;;;;;;;;16.60;99.90;;;;;;5090508;28;19916;-83
2021/08/30 06:02:37;;;;;;;;;;;16.70;99.90;;;;;;5091286;28;19959;-76
2021/08/30 06:05:03;;;;;;;;;;;16.70;99.90;;;;;;5092608;28;19962;-81
2021/08/30 06:07:28;;;;;;;;;;;16.70;99.90;;;;;;5073330;28;20011;-80
2021/08/30 06:09:54;;;;;;;;;;;16.70;99.90;;;;;;5091787;28;20010;-76
2021/08/30 06:12:19;;;;;;;;;;;16.80;99.90;;;;;;5088446;28;19965;-81
2021/08/30 06:14:45;;;;;;;;;;;16.80;99.90;;;;;;5090759;28;19988;-76
2021/08/30 06:17:11;;;;;;;;;;;16.90;99.90;;;;;;5085839;28;19943;-78
2021/08/30 06:19:36;;;;;;;;;;;16.90;99.90;;;;;;5069552;28;19939;-77
2021/08/30 06:22:02;;;;;;;;;;;16.90;99.90;;;;;;5094585;28;19912;-81
2021/08/30 06:24:28;;;;;;;;;;;17.00;99.90;;;;;;5076946;28;20560;-80
2021/08/30 06:26:53;;;;;;;;;;;17.00;99.90;;;;;;5096230;28;19916;-77
2021/08/30 06:29:19;;;;;;;;;;;17.10;99.90;;;;;;5095183;28;19908;-84
2021/08/30 06:31:44;;;;;;;;;;;17.00;99.90;;;;;;5082185;28;20318;-82
2021/08/30 06:34:10;;;;;;;;;;;17.10;99.90;;;;;;5076144;28;20440;-78
2021/08/30 06:36:35;;;;;;;;;;;17.10;99.90;;;;;;5074978;28;20249;-78
2021/08/30 06:39:01;;;;;;;;;;;17.10;99.90;;;;;;5090432;28;20199;-78
2021/08/30 06:41:27;;;;;;;;;;;17.00;99.90;;;;;;5095876;28;19947;-81
2021/08/30 06:43:53;;;;;;;;;;;17.00;99.90;;;;;;5077474;28;19927;-77
2021/08/30 06:46:19;;;;;;;;;;;17.00;99.90;;;;;;5075136;28;19940;-79
2021/08/30 06:48:44;;;;;;;;;;;17.10;99.90;;;;;;5069164;28;19924;-83
2021/08/30 06:51:10;;;;;;;;;;;17.10;99.90;;;;;;5095455;28;19908;-78
2021/08/30 06:53:36;;;;;;;;;;;17.00;99.90;;;;;;5094174;28;19920;-83
2021/08/30 06:56:01;;;;;;;;;;;17.00;99.90;;;;;;5073206;28;19928;-83
2021/08/30 06:58:27;;;;;;;;;;;17.00;99.90;;;;;;5089301;28;19950;-82
2021/08/30 07:00:52;;;;;;;;;;;17.00;99.90;;;;;;5084646;28;19998;-81
2021/08/30 07:03:18;;;;;;;;;;;17.00;99.90;;;;;;5065845;28;19924;-84
2021/08/30 07:05:44;;;;;;;;;;;17.10;99.90;;;;;;5083948;28;19916;-76
2021/08/30 07:08:09;;;;;;;;;;;17.10;99.90;;;;;;5082968;28;19934;-83
2021/08/30 07:10:35;;;;;;;;;;;17.20;99.90;;;;;;5067933;28;19974;-80
2021/08/30 07:13:00;;;;;;;;;;;17.20;99.90;;;;;;5066989;28;20311;-77
2021/08/30 07:15:27;;;;;;;;;;;17.20;99.90;;;;;;5068552;28;19916;-76
2021/08/30 07:17:52;;;;;;;;;;;17.30;99.90;;;;;;5070853;28;19962;-79
2021/08/30 07:20:18;;;;;;;;;;;17.30;99.90;;;;;;5071902;28;19908;-79
2021/08/30 07:22:43;;;;;;;;;;;17.40;99.90;;;;;;5088975;28;19912;-78
2021/08/30 07:25:09;;;;;;;;;;;17.40;99.90;;;;;;5076259;28;19916;-81
2021/08/30 07:27:35;;;;;;;;;;;17.40;99.90;;;;;;5094187;28;19916;-80
2021/08/30 07:30:00;;;;;;;;;;;17.40;99.90;;;;;;5094516;28;20229;-78
2021/08/30 07:32:26;;;;;;;;;;;17.40;99.90;;;;;;5094854;28;19908;-78
2021/08/30 07:34:51;;;;;;;;;;;17.50;99.90;;;;;;5085978;28;20306;-82
2021/08/30 07:37:17;;;;;;;;;;;17.40;99.90;;;;;;5089890;28;19973;-83
2021/08/30 07:39:42;;;;;;;;;;;17.40;99.90;;;;;;5076937;28;19912;-78
2021/08/30 07:42:08;;;;;;;;;;;17.50;99.90;;;;;;5095117;28;19908;-81
2021/08/30 07:44:34;;;;;;;;;;;17.50;99.90;;;;;;5093953;28;19919;-80
2021/08/30 07:46:59;;;;;;;;;;;17.50;99.90;;;;;;5093905;28;19927;-80
2021/08/30 07:49:25;;;;;;;;;;;17.50;99.90;;;;;;5082976;28;20234;-81
2021/08/30 07:51:50;;;;;;;;;;;17.50;99.90;;;;;;5083366;28;19939;-81
2021/08/30 07:54:16;;;;;;;;;;;17.60;99.90;;;;;;5070346;28;19916;-77
2021/08/30 07:56:41;;;;;;;;;;;17.60;99.90;;;;;;5084427;28;19916;-79
2021/08/30 07:59:08;;;;;;;;;;;17.60;99.90;;;;;;5086662;28;19912;-78
2021/08/30 08:01:34;;;;;;;;;;;17.60;99.90;;;;;;5087492;28;19961;-80
2021/08/30 08:03:59;;;;;;;;;;;17.60;99.90;;;;;;5089485;28;19912;-80
2021/08/30 08:06:25;;;;;;;;;;;17.60;99.90;;;;;;5086389;28;20016;-78
2021/08/30 08:08:51;;;;;;;;;;;17.70;99.90;;;;;;5087210;28;19938;-80
2021/08/30 08:11:16;;;;;;;;;;;17.70;99.90;;;;;;5069944;28;19920;-82
2021/08/30 08:13:42;;;;;;;;;;;17.70;99.90;;;;;;5088330;28;20320;-77
2021/08/30 08:16:08;;;;;;;;;;;17.80;99.90;;;;;;5067138;28;19924;-77
2021/08/30 08:18:34;;;;;;;;;;;17.70;99.90;;;;;;5090762;28;19935;-82
2021/08/30 08:21:02;;;;;;;;;;;17.80;99.90;;;;;;5071713;28;20010;-78
2021/08/30 08:23:27;;;;;;;;;;;17.80;99.90;;;;;;5090646;28;19926;-79
2021/08/30 08:25:53;;;;;;;;;;;17.80;99.90;;;;;;5069761;28;19995;-77
2021/08/30 08:28:18;;;;;;;;;;;17.80;99.90;;;;;;5086066;28;20350;-77
2021/08/30 08:30:44;;;;;;;;;;;17.70;99.90;;;;;;5071723;28;19961;-80
2021/08/30 08:33:09;;;;;;;;;;;17.80;99.90;;;;;;5069816;28;19916;-79
2021/08/30 08:35:35;;;;;;;;;;;17.80;99.90;;;;;;5070596;28;19966;-77
2021/08/30 08:38:01;;;;;;;;;;;17.80;99.90;;;;;;5070149;28;19916;-80
2021/08/30 08:40:26;;;;;;;;;;;17.80;99.90;;;;;;5089516;28;19991;-77
2021/08/30 08:42:52;;;;;;;;;;;17.80;99.90;;;;;;5071877;28;19999;-77
2021/08/30 08:45:18;;;;;;;;;;;17.90;99.90;;;;;;5076779;28;19921;-76
2021/08/30 08:47:44;;;;;;;;;;;17.90;99.90;;;;;;5093695;28;19924;-78
2021/08/30 08:50:11;;;;;;;;;;;18.00;99.90;;;;;;5095717;28;19923;-79
2021/08/30 08:52:39;;;;;;;;;;;18.00;99.90;;;;;;5093721;28;19919;-78
2021/08/30 08:55:07;;;;;;;;;;;18.10;99.90;;;;;;5075559;28;20011;-83
2021/08/30 08:57:33;;;;;;;;;;;18.20;99.90;;;;;;5095543;28;19912;-78
2021/08/30 09:00:02;;;;;;;;;;;18.20;99.90;;;;;;5072119;28;20719;-78
2021/08/30 09:02:28;;;;;;;;;;;18.30;99.90;;;;;;5079385;28;20030;-77
2021/08/30 09:04:55;;;;;;;;;;;18.30;99.90;;;;;;5073815;28;20061;-79
2021/08/30 09:07:29;;;;;;;;;;;18.40;99.90;;;;;;5075547;28;20311;-76
2021/08/30 09:09:57;;;;;;;;;;;18.40;99.90;;;;;;5075788;28;19916;-77
2021/08/30 09:12:23;;;;;;;;;;;18.40;99.90;;;;;;5075995;28;19999;-79
2021/08/30 09:14:48;;;;;;;;;;;18.40;99.90;;;;;;5075375;28;20019;-77
2021/08/30 09:17:14;;;;;;;;;;;18.40;99.90;;;;;;5076270;28;19919;-78
2021/08/30 09:19:40;;;;;;;;;;;18.50;99.90;;;;;;5075184;28;20014;-80
2021/08/30 09:22:06;;;;;;;;;;;18.50;99.90;;;;;;5070592;28;20259;-76
2021/08/30 09:24:32;;;;;;;;;;;18.50;99.90;;;;;;5075322;28;19960;-76
2021/08/30 09:26:58;;;;;;;;;;;18.50;99.90;;;;;;5076778;28;19960;-78
2021/08/30 09:29:24;;;;;;;;;;;18.40;99.90;;;;;;5076212;28;20204;-77
2021/08/30 09:32:07;;;;;;;;;;;18.50;99.90;;;;;;5076823;28;19916;-78
2021/08/30 09:34:45;;;;;;;;;;;18.50;99.90;;;;;;5081050;28;19919;-76
2021/08/30 09:37:19;;;;;;;;;;;18.50;99.90;;;;;;5077545;28;21295;-76
2021/08/30 09:39:45;;;;;;;;;;;18.50;99.90;;;;;;5075322;28;20007;-77
2021/08/30 09:42:10;;;;;;;;;;;18.50;99.90;;;;;;5069831;28;20023;-79
2021/08/30 09:44:36;;;;;;;;;;;18.50;99.90;;;;;;5071865;28;19935;-76
2021/08/30 09:47:09;;;;;;;;;;;18.50;99.90;;;;;;5067234;28;19934;-77
2021/08/30 09:49:34;;;;;;;;;;;18.50;99.90;;;;;;5062707;28;20024;-79
2021/08/30 09:52:00;;;;;;;;;;;18.50;99.90;;;;;;5074945;28;20011;-78
2021/08/30 09:54:27;;;;;;;;;;;18.70;99.90;;;;;;5076689;28;19924;-77
2021/08/30 09:56:53;;;;;;;;;;;18.80;99.90;;;;;;5076900;28;20000;-77
2021/08/30 09:59:19;;;;;;;;;;;18.80;99.90;;;;;;5076423;28;20401;-78
2021/08/30 10:01:46;;;;;;;;;;;18.80;99.90;;;;;;5096756;28;19925;-82
2021/08/30 10:04:15;;;;;;;;;;;18.90;99.90;;;;;;5090523;28;19923;-83
2021/08/30 10:06:41;;;;;;;;;;;19.10;99.90;;;;;;5096577;28;19920;-78
2021/08/30 10:09:11;;;;;;;;;;;19.30;99.90;;;;;;5096516;28;19908;-78
2021/08/30 10:11:37;;;;;;;;;;;19.50;99.90;;;;;;5077719;28;19927;-75
2021/08/30 10:14:04;;;;;;;;;;;19.60;99.90;;;;;;5092627;28;19969;-78
2021/08/30 10:16:29;;;;;;;;;;;19.60;99.90;;;;;;5078295;28;19920;-79
2021/08/30 10:18:55;;;;;;;;;;;19.60;99.90;;;;;;5095452;28;19920;-79
2021/08/30 10:21:21;;;;;;;;;;;19.80;99.90;;;;;;5094591;28;19912;-74
2021/08/30 10:23:48;;;;;;;;;;;19.70;99.90;;;;;;5092967;28;19912;-77
2021/08/30 10:26:14;;;;;;;;;;;19.70;99.90;;;;;;5078528;28;19908;-80
2021/08/30 10:28:42;;;;;;;;;;;19.80;99.90;;;;;;5094942;28;19912;-77
2021/08/30 10:31:16;;;;;;;;;;;19.80;99.90;;;;;;5072304;28;20211;-77
2021/08/30 10:33:47;;;;;;;;;;;19.70;99.90;;;;;;5084382;28;20021;-77
2021/08/30 10:36:14;;;;;;;;;;;19.60;99.90;;;;;;5091768;28;20499;-77
2021/08/30 10:38:40;;;;;;;;;;;19.60;99.90;;;;;;5091583;28;19916;-77
2021/08/30 10:41:15;;;;;;;;;;;19.60;99.90;;;;;;5091936;28;19923;-76
2021/08/30 10:43:42;;;;;;;;;;;19.70;99.90;;;;;;5076568;28;19919;-76
2021/08/30 10:46:12;;;;;;;;;;;19.80;99.90;;;;;;5092140;28;19915;-78
2021/08/30 10:48:39;;;;;;;;;;;19.60;99.90;;;;;;5091644;28;20006;-77
2021/08/30 10:51:11;;;;;;;;;;;19.70;99.90;;;;;;5077282;28;20291;-77
2021/08/30 10:53:37;;;;;;;;;;;19.70;99.90;;;;;;5092528;28;19920;-75
2021/08/30 10:56:07;;;;;;;;;;;19.80;99.90;;;;;;5091853;28;19912;-76
2021/08/30 10:58:33;;;;;;;;;;;19.90;99.90;;;;;;5087609;28;19912;-79
2021/08/30 11:01:09;;;;;;;;;;;20.00;99.90;;;;;;5065616;28;20495;-77
2021/08/30 11:03:35;;;;;;;;;;;19.90;99.90;;;;;;5067348;28;20377;-77
2021/08/30 11:06:01;;;;;;;;;;;20.00;99.90;;;;;;5065847;28;20031;-80
2021/08/30 11:08:26;;;;;;;;;;;20.00;99.90;;;;;;5070569;28;19935;-76
2021/08/30 11:10:52;;;;;;;;;;;20.10;99.90;;;;;;5069322;28;19920;-76
2021/08/30 11:13:26;;;;;;;;;;;20.10;99.90;;;;;;5068021;28;20398;-77
2021/08/30 11:15:51;;;;;;;;;;;20.00;99.90;;;;;;5068090;28;19917;-76
2021/08/30 11:18:17;;;;;;;;;;;20.10;99.90;;;;;;5065750;28;19924;-76
2021/08/30 11:20:52;;;;;;;;;;;20.10;99.90;;;;;;5069211;28;19920;-75
2021/08/30 11:23:17;;;;;;;;;;;20.10;99.90;;;;;;5075687;28;19920;-77
2021/08/30 11:25:43;;;;;;;;;;;20.10;99.90;;;;;;5073703;28;20221;-78
2021/08/30 11:28:18;;;;;;;;;;;20.00;99.90;;;;;;5073868;28;19916;-77
2021/08/30 11:30:45;;;;;;;;;;;20.00;99.90;;;;;;5071884;28;20319;-76
2021/08/30 11:33:23;;;;;;;;;;;20.20;99.90;;;;;;5073813;28;19916;-77
2021/08/30 11:35:49;;;;;;;;;;;20.10;99.90;;;;;;5071328;28;19912;-79
2021/08/30 11:38:15;;;;;;;;;;;20.20;99.90;;;;;;5074735;28;19916;-76
2021/08/30 11:40:40;;;;;;;;;;;20.20;99.90;;;;;;5073429;28;20286;-76
2021/08/30 11:43:17;;;;;;;;;;;20.20;99.90;;;;;;5071490;28;19916;-77
2021/08/30 11:45:42;;;;;;;;;;;20.30;99.90;;;;;;5082527;28;19917;-76
2021/08/30 11:48:15;;;;;;;;;;;20.20;99.90;;;;;;5069012;28;19913;-75
2021/08/30 11:50:41;;;;;;;;;;;20.30;99.90;;;;;;5072641;28;20322;-76
2021/08/30 11:53:11;;;;;;;;;;;20.30;99.90;;;;;;5073459;28;19912;-75
2021/08/30 11:55:36;;;;;;;;;;;20.30;99.90;;;;;;5070865;28;19916;-76
2021/08/30 11:58:03;;;;;;;;;;;20.20;99.90;;;;;;5074040;28;19912;-74
2021/08/30 12:00:29;;;;;;;;;;;20.20;99.90;;;;;;5075910;28;19998;-75
2021/08/30 12:02:56;;;;;;;;;;;20.20;99.90;;;;;;5091867;28;19916;-76
2021/08/30 12:05:26;;;;;;;;;;;20.30;99.90;;;;;;5085241;28;21365;-76
2021/08/30 12:07:53;;;;;;;;;;;20.30;99.90;;;;;;5068540;28;20034;-78
2021/08/30 12:10:18;;;;;;;;;;;20.40;99.90;;;;;;5092737;28;20006;-77
2021/08/30 12:13:19;;;;;;;;;;;20.40;99.90;;;;;;5086405;28;20381;-75
2021/08/30 12:15:44;;;;;;;;;;;20.40;99.90;;;;;;5086219;28;20307;-77
2021/08/30 12:18:15;;;;;;;;;;;20.50;99.90;;;;;;5078840;28;19916;-76
2021/08/30 12:20:41;;;;;;;;;;;20.50;99.90;;;;;;5073512;28;19966;-77
2021/08/30 12:23:08;;;;;;;;;;;20.50;99.90;;;;;;5088333;28;19913;-78
2021/08/30 12:25:36;;;;;;;;;;;20.40;99.90;;;;;;5093842;28;19912;-77
2021/08/30 12:28:02;;;;;;;;;;;20.50;99.90;;;;;;5091480;28;19922;-77
2021/08/30 12:30:29;;;;;;;;;;;20.40;99.90;;;;;;5085180;28;19916;-77
2021/08/30 12:32:58;;;;;;;;;;;20.50;99.90;;;;;;5071073;28;19955;-77
2021/08/30 12:35:29;;;;;;;;;;;20.60;99.90;;;;;;5086537;28;20019;-76
2021/08/30 12:38:08;;;;;;;;;;;20.60;99.90;;;;;;5084072;28;20338;-76
2021/08/30 12:40:34;;;;;;;;;;;20.60;99.90;;;;;;5088397;28;19920;-76
2021/08/30 12:43:00;;;;;;;;;;;20.60;99.90;;;;;;5073158;28;19917;-76
2021/08/30 12:45:26;;;;;;;;;;;20.60;99.90;;;;;;5084433;28;19912;-77
2021/08/30 12:47:52;;;;;;;;;;;20.60;99.90;;;;;;5067156;28;19985;-77
2021/08/30 12:50:18;;;;;;;;;;;20.60;99.90;;;;;;5071072;28;19912;-76
2021/08/30 12:52:43;;;;;;;;;;;20.70;99.90;;;;;;5084795;28;20006;-76
2021/08/30 12:55:10;;;;;;;;;;;20.70;99.90;;;;;;5089673;28;20315;-76
2021/08/30 12:57:36;;;;;;;;;;;20.80;99.90;;;;;;5085947;28;19921;-76
2021/08/30 13:00:03;;;;;;;;;;;20.80;99.90;;;;;;5088964;28;19985;-75
2021/08/30 13:02:28;;;;;;;;;;;20.70;99.90;;;;;;5092485;28;19974;-78
2021/08/30 13:04:54;;;;;;;;;;;20.60;99.90;;;;;;5076277;28;21126;-75
2021/08/30 13:07:19;;;;;;;;;;;20.60;99.90;;;;;;5090718;28;19999;-75
2021/08/30 13:09:45;;;;;;;;;;;20.50;99.90;;;;;;5074779;28;19916;-78
2021/08/30 13:12:11;;;;;;;;;;;20.50;99.90;;;;;;5075331;28;20223;-77
2021/08/30 13:14:37;;;;;;;;;;;20.60;99.90;;;;;;5075273;28;19938;-77
2021/08/30 13:17:03;;;;;;;;;;;20.60;99.90;;;;;;5093176;28;20378;-78
2021/08/30 13:19:29;;;;;;;;;;;20.60;99.90;;;;;;5091902;28;20016;-78
2021/08/30 13:21:54;;;;;;;;;;;20.60;99.90;;;;;;5075508;28;19916;-76
2021/08/30 13:24:20;;;;;;;;;;;20.50;99.90;;;;;;5090394;28;19920;-76
2021/08/30 13:26:45;;;;;;;;;;;20.50;99.90;;;;;;5078504;28;19991;-76
2021/08/30 13:29:11;;;;;;;;;;;20.50;99.90;;;;;;5081440;28;20294;-78
2021/08/30 13:31:37;;;;;;;;;;;20.60;99.90;;;;;;5096379;28;19935;-76
2021/08/30 13:34:02;;;;;;;;;;;20.60;99.90;;;;;;5097458;28;20011;-76
2021/08/30 13:36:28;;;;;;;;;;;20.40;99.90;;;;;;5101681;28;19912;-77
2021/08/30 13:38:53;;;;;;;;;;;20.40;99.90;;;;;;5110215;28;19919;-75
2021/08/30 13:41:19;;;;;;;;;;;20.40;99.90;;;;;;5070345;28;19928;-78
2021/08/30 13:43:45;;;;;;;;;;;20.30;99.90;;;;;;5079127;28;19931;-76
2021/08/30 13:46:11;;;;;;;;;;;20.10;99.90;;;;;;5094869;28;19912;-76
2021/08/30 13:48:40;;;;;;;;;;;20.00;99.90;;;;;;5086588;28;19990;-75
2021/08/30 13:51:06;;;;;;;;;;;19.90;99.90;;;;;;5085932;28;20018;-76
2021/08/30 13:53:33;;;;;;;;;;;20.00;99.90;;;;;;5098558;28;20002;-76
2021/08/30 13:55:58;;;;;;;;;;;20.00;99.90;;;;;;5079126;28;19920;-75
2021/08/30 13:58:24;;;;;;;;;;;20.00;99.90;;;;;;5079924;28;19933;-76
2021/08/30 14:00:49;;;;;;;;;;;20.00;99.90;;;;;;5097008;28;19927;-76
2021/08/30 14:03:15;;;;;;;;;;;19.90;99.90;;;;;;5097006;28;19939;-76
2021/08/30 14:05:40;;;;;;;;;;;19.80;99.90;;;;;;5096467;28;20342;-77
2021/08/30 14:08:06;;;;;;;;;;;19.90;99.90;;;;;;5078589;28;20022;-76
2021/08/30 14:10:32;;;;;;;;;;;19.90;99.90;;;;;;5077223;28;19912;-77
2021/08/30 14:12:58;;;;;;;;;;;19.90;99.90;;;;;;5075061;28;20258;-78
2021/08/30 14:15:24;;;;;;;;;;;19.90;99.90;;;;;;5098697;28;19908;-77
2021/08/30 14:17:50;;;;;;;;;;;19.90;99.90;;;;;;5090887;28;20320;-77
2021/08/30 14:20:16;;;;;;;;;;;19.90;99.90;;;;;;5094193;28;19952;-76